Country
Station

 

Weather  for  Elmira, Elmira/Corning Regional Airport  -  United States    United States

  
3 °C (37 °F)
    
 
 

Current METAR for Elmira, Elmira/Corning Regional Airport is :

KELM 211753Z 00000KT 9SM OVC022 03/00 A3010 RMK AO2 SLP203 T00280000 10033 21022 58019

 

This is a report for Elmira, Elmira/Corning Regional Airport - United States.
 
The report was made 9 minutes ago, at 17:53 UTC .
The wind was calm.
 
The temperature was 3 °C (37 °F)
The atmospheric pressure was 1019 hPa (30.10 inHg).
The sky was overcast from a height of 671 meter (2200 feet)
 
The overall visibility was 14.5 kilometers (9.0 miles).
 

 
 
 
 

Country :   A   B   C   D   E   F   G   H   I   J   K   L   M   N   O   P   Q   R   S   T   U   V   W   Y   Z

 

Site Info  |  Disclaimer  |  Credits  |  Privacy
Contact us  |  Add to favorites
© 2013-2018 METARs - All rights reserved